Time;durP1;ratioP1;P1;durP2;ratioP2;P2;SDS_P1;SDS_P2;PMS_P1;PMS_P2;Temp;Humidity;BMP_temperature;BMP_pressure;BME280_temperature;BME280_humidity;BME280_pressure;Samples;Min_cycle;Max_cycle;Signal;HPM_P1;HPM_P2
2022/12/30 00:03:05;;;;;;;2.20;2.00;;;;;;;11.78;50.86;99705.84;10353160;28;20237;-38
2022/12/30 00:08:45;;;;;;;3.73;2.30;;;;;;;11.36;51.16;99691.44;10350206;28;20344;-38
2022/12/30 00:35:00;;;;;;;4.50;2.30;;;;;;;11.24;51.11;99717.06;10349322;28;20233;-38
2022/12/30 00:40:02;;;;;;;4.93;2.33;;;;;;;10.88;50.90;99704.50;10353818;28;20243;-37
2022/12/30 00:45:05;;;;;;;4.63;2.40;;;;;;;10.44;51.93;99730.28;10346142;28;20238;-37
2022/12/30 01:00:48;;;;;;;3.30;2.30;;;;;;;8.93;54.02;99685.66;10348099;28;20273;-37
2022/12/30 01:05:50;;;;;;;2.10;1.90;;;;;;;7.48;57.50;99605.81;10342766;28;20353;-37
2022/12/30 01:10:52;;;;;;;6.13;2.50;;;;;;;8.41;56.33;99703.88;10349161;28;20605;-37
2022/12/30 01:15:53;;;;;;;6.10;2.43;;;;;;;9.30;53.62;99729.44;10348157;28;20239;-37
2022/12/30 01:20:59;;;;;;;8.30;2.73;;;;;;;9.61;52.65;99753.44;10351743;28;20232;-37
2022/12/30 01:26:02;;;;;;;3.77;2.30;;;;;;;8.54;54.76;99737.16;10349570;28;20237;-37
2022/12/30 01:31:07;;;;;;;5.13;2.80;;;;;;;8.58;55.11;99731.31;10349995;28;20626;-37
2022/12/30 01:36:08;;;;;;;6.70;2.60;;;;;;;9.34;54.40;99690.72;10346365;28;20238;-37
2022/12/30 01:41:10;;;;;;;4.40;2.70;;;;;;;10.72;51.82;99673.44;10352060;28;20568;-37
2022/12/30 01:46:34;;;;;;;4.43;2.87;;;;;;;10.68;51.72;99688.19;10352765;28;20741;-37
2022/12/30 01:51:36;;;;;;;5.13;2.63;;;;;;;9.88;53.19;99729.88;10346966;28;20251;-37
2022/12/30 01:56:41;;;;;;;3.27;2.83;;;;;;;9.30;53.65;99759.69;10350199;28;20235;-37
2022/12/30 02:01:44;;;;;;;7.33;2.80;;;;;;;9.99;53.04;99732.13;10344980;28;20344;-37
2022/12/30 02:07:01;;;;;;;2.83;2.30;;;;;;;7.70;57.38;99633.56;10361276;28;20633;-37
2022/12/30 02:12:05;;;;;;;3.17;2.87;;;;;;;7.90;57.33;99660.72;10341895;28;20240;-37
2022/12/30 02:17:16;;;;;;;7.63;2.93;;;;;;;9.14;54.88;99738.41;10344270;28;20259;-37
2022/12/30 02:22:56;;;;;;;5.00;2.60;;;;;;;11.66;50.32;99744.91;10343711;28;20241;-37
2022/12/30 02:28:22;;;;;;;3.50;2.87;;;;;;;10.51;51.27;99735.72;10352786;28;20235;-37
2022/12/30 02:33:53;;;;;;;2.87;2.37;;;;;;;11.56;50.25;99760.47;10351599;28;20236;-37
2022/12/30 02:39:06;;;;;;;3.50;2.60;;;;;;;10.50;53.10;99715.34;10347818;28;20242;-37
2022/12/30 02:49:38;;;;;;;3.27;2.97;;;;;;;10.23;52.39;99764.97;10349873;28;20245;-37
2022/12/30 02:54:42;;;;;;;5.17;2.70;;;;;;;10.91;51.97;99738.94;10344736;28;20234;-38
2022/12/30 03:05:45;;;;;;;3.23;2.93;;;;;;;9.68;53.01;99802.47;10351489;28;21140;-37
2022/12/30 03:16:34;;;;;;;3.67;2.70;;;;;;;8.52;56.29;99757.81;10346989;28;20234;-37
2022/12/30 03:21:40;;;;;;;3.00;2.80;;;;;;;8.74;57.10;99762.44;10348787;28;20247;-37
2022/12/30 03:32:06;;;;;;;3.93;3.20;;;;;;;8.42;56.66;99761.53;10346554;28;20233;-37
2022/12/30 03:37:23;;;;;;;3.83;3.10;;;;;;;8.85;55.86;99745.19;10340636;28;20814;-37
2022/12/30 03:42:25;;;;;;;3.10;2.60;;;;;;;8.93;55.91;99718.50;10344276;28;20233;-37
2022/12/30 03:47:26;;;;;;;3.23;2.93;;;;;;;7.55;58.93;99663.53;10346490;28;20238;-37
2022/12/30 03:52:28;;;;;;;3.80;2.93;;;;;;;7.63;58.02;99676.03;10352331;28;20233;-37
2022/12/30 03:57:30;;;;;;;3.37;3.07;;;;;;;9.07;56.42;99663.53;10348732;28;20229;-37
2022/12/30 04:02:31;;;;;;;2.90;2.70;;;;;;;7.56;58.81;99661.72;10351986;28;20643;-37
2022/12/30 04:07:34;;;;;;;3.83;3.37;;;;;;;9.19;56.01;99648.75;10351643;28;20237;-37
2022/12/30 04:12:35;;;;;;;3.40;3.10;;;;;;;9.56;55.27;99649.78;10350636;28;20245;-37
2022/12/30 04:17:37;;;;;;;3.47;3.10;;;;;;;9.23;54.24;99686.63;10350664;28;20230;-37
2022/12/30 04:22:39;;;;;;;3.43;3.00;;;;;;;8.74;55.57;99740.25;10351162;28;20236;-37
2022/12/30 04:27:40;;;;;;;2.67;2.43;;;;;;;9.45;54.61;99652.91;10356287;28;20281;-37
2022/12/30 04:32:42;;;;;;;2.80;2.60;;;;;;;8.74;56.52;99695.75;10353984;28;20859;-37
2022/12/30 04:37:44;;;;;;;2.50;2.30;;;;;;;7.71;57.04;99689.34;10350871;28;20337;-37
2022/12/30 04:42:45;;;;;;;2.23;2.13;;;;;;;8.04;57.56;99697.28;10353750;28;20233;-37
2022/12/30 04:47:47;;;;;;;2.50;2.30;;;;;;;8.89;55.50;99671.00;10347408;28;20236;-37
2022/12/30 04:52:49;;;;;;;4.23;2.17;;;;;;;8.93;54.59;99680.31;10350954;28;20259;-37
2022/12/30 04:57:50;;;;;;;2.17;2.07;;;;;;;8.99;53.01;99725.81;10357416;28;20652;-37
2022/12/30 05:02:52;;;;;;;4.00;2.53;;;;;;;8.44;55.14;99745.38;10350232;28;20237;-37
2022/12/30 05:07:54;;;;;;;2.80;2.40;;;;;;;9.72;53.15;99688.03;10339621;28;20498;-37
2022/12/30 05:12:56;;;;;;;3.00;2.80;;;;;;;10.24;51.59;99699.75;10352577;28;20241;-37
2022/12/30 05:17:58;;;;;;;2.80;2.60;;;;;;;12.11;47.78;99793.75;10351355;28;20233;-37
2022/12/30 05:22:59;;;;;;;3.30;2.30;;;;;;;11.16;48.72;99766.22;10349322;28;20233;-37
2022/12/30 05:28:01;;;;;;;2.20;2.10;;;;;;;12.17;46.66;99825.16;10345455;28;20235;-37
2022/12/30 05:33:03;;;;;;;2.93;2.10;;;;;;;12.03;46.23;99831.47;10343920;28;20231;-37
2022/12/30 05:38:05;;;;;;;5.53;3.00;;;;;;;12.08;45.91;99829.03;10341065;28;21075;-38
2022/12/30 05:43:06;;;;;;;4.23;3.37;;;;;;;12.19;46.20;99833.03;10344446;28;20244;-37
2022/12/30 05:48:08;;;;;;;6.23;3.80;;;;;;;11.78;46.97;99805.03;9476563;28;10000976;-37
2022/12/30 05:53:10;;;;;;;4.03;3.60;;;;;;;11.49;47.33;99802.44;10351961;28;20227;-37
2022/12/30 05:58:11;;;;;;;5.30;3.17;;;;;;;11.20;47.37;99798.81;10350020;28;20623;-37
2022/12/30 06:03:13;;;;;;;2.93;2.27;;;;;;;10.42;48.98;99825.13;10348598;28;20240;-37
2022/12/30 06:08:15;;;;;;;5.03;2.80;;;;;;;11.68;46.83;99817.94;10342790;28;20512;-37
2022/12/30 06:13:17;;;;;;;9.03;5.40;;;;;;;10.69;48.13;99802.25;10342450;28;20245;-37
2022/12/30 06:18:19;;;;;;;4.73;3.53;;;;;;;11.74;46.65;99835.09;10345477;28;20595;-37
2022/12/30 06:23:21;;;;;;;5.73;3.70;;;;;;;13.07;44.08;99886.31;10346153;28;20236;-38
2022/12/30 06:28:25;;;;;;;4.70;4.13;;;;;;;11.26;46.68;99819.50;10343222;28;20251;-39
2022/12/30 06:33:26;;;;;;;7.77;5.07;;;;;;;10.88;47.30;99817.81;10349581;28;20236;-37
2022/12/30 06:38:28;;;;;;;5.30;3.93;;;;;;;10.97;47.46;99818.53;10349186;28;20321;-38
2022/12/30 06:43:30;;;;;;;4.43;3.47;;;;;;;11.22;47.78;99794.09;10343357;28;20260;-38
2022/12/30 06:48:31;;;;;;;6.57;4.37;;;;;;;11.48;46.75;99790.06;10338002;28;20241;-38
2022/12/30 06:53:36;;;;;;;7.47;5.27;;;;;;;11.13;46.47;99787.19;10336839;28;20237;-38
2022/12/30 06:58:38;;;;;;;7.57;4.83;;;;;;;9.71;48.83;99802.13;10338615;28;20229;-37
2022/12/30 07:03:40;;;;;;;7.63;6.53;;;;;;;10.06;48.88;99801.72;10335998;28;20233;-38
2022/12/30 07:08:42;;;;;;;16.37;12.37;;;;;;;10.16;47.97;99764.88;10343778;28;20252;-38
2022/12/30 07:13:43;;;;;;;7.87;6.70;;;;;;;9.13;49.47;99740.25;10339182;28;20243;-38
2022/12/30 07:18:45;;;;;;;8.07;5.87;;;;;;;10.37;47.95;99732.03;10331523;28;20530;-38
2022/12/30 07:23:46;;;;;;;8.23;5.70;;;;;;;10.62;47.69;99742.47;10346663;28;20229;-38
2022/12/30 07:28:48;;;;;;;15.23;8.20;;;;;;;10.91;46.71;99751.50;10348760;28;20245;-38
2022/12/30 07:33:54;;;;;;;12.27;7.87;;;;;;;10.57;47.00;99785.84;10351382;28;20241;-38
2022/12/30 07:38:57;;;;;;;4.40;4.00;;;;;;;10.50;46.88;99761.66;10354830;28;20229;-37
2022/12/30 07:43:59;;;;;;;4.10;3.70;;;;;;;10.33;47.09;99769.03;10350141;28;20252;-38
2022/12/30 07:49:01;;;;;;;3.83;3.43;;;;;;;10.73;46.81;99751.84;10354361;28;20229;-38
2022/12/30 07:54:02;;;;;;;5.73;5.13;;;;;;;10.66;47.32;99760.66;10351293;28;20231;-38
2022/12/30 07:59:11;;;;;;;6.77;4.77;;;;;;;8.99;50.97;99708.97;10349564;28;20236;-37
2022/12/30 08:04:13;;;;;;;4.90;4.10;;;;;;;10.12;49.69;99726.13;10348590;28;20264;-38
2022/12/30 08:09:36;;;;;;;5.27;4.47;;;;;;;9.67;50.41;99722.50;10347098;28;20245;-38
2022/12/30 08:14:38;;;;;;;4.63;4.07;;;;;;;10.88;48.38;99673.25;10351935;28;20344;-38
2022/12/30 08:19:40;;;;;;;4.60;3.53;;;;;;;9.85;49.83;99696.31;10352881;28;20225;-38
2022/12/30 08:24:41;;;;;;;5.80;4.00;;;;;;;10.10;49.09;99675.50;10345266;28;20328;-38
2022/12/30 08:29:43;;;;;;;6.10;4.90;;;;;;;12.14;45.94;99666.47;10348647;28;20276;-37
2022/12/30 08:34:45;;;;;;;6.67;5.43;;;;;;;11.80;46.62;99658.22;10345187;28;20230;-39
2022/12/30 08:39:46;;;;;;;5.03;4.00;;;;;;;13.05;44.36;99708.38;10345595;28;20241;-38
2022/12/30 08:44:48;;;;;;;4.57;3.83;;;;;;;12.30;45.68;99663.47;10348419;28;20357;-38
2022/12/30 08:49:50;;;;;;;6.60;3.73;;;;;;;12.05;45.84;99648.91;10351956;28;20395;-38
2022/12/30 08:54:52;;;;;;;10.20;7.37;;;;;;;12.95;44.41;99671.16;10349119;28;20312;-38
2022/12/30 08:59:53;;;;;;;10.50;6.60;;;;;;;12.89;44.13;99674.66;10343520;28;20245;-38
2022/12/30 09:04:55;;;;;;;8.37;6.00;;;;;;;13.39;43.80;99685.13;10339420;28;20234;-38
2022/12/30 09:09:57;;;;;;;6.67;4.10;;;;;;;11.93;46.30;99622.63;10345102;28;20257;-38
2022/12/30 09:14:58;;;;;;;8.17;6.10;;;;;;;11.39;47.83;99607.19;10338742;28;20244;-38
2022/12/30 09:20:00;;;;;;;7.10;6.40;;;;;;;11.78;46.64;99576.34;10342933;28;20237;-38
2022/12/30 09:25:02;;;;;;;6.03;4.93;;;;;;;11.45;47.22;99584.94;10347569;28;20236;-38
2022/12/30 09:30:05;;;;;;;6.87;3.93;;;;;;;10.63;49.02;99599.63;10344937;28;20233;-38
2022/12/30 09:35:07;;;;;;;5.77;4.30;;;;;;;9.94;50.60;99558.09;10348700;28;20229;-38
2022/12/30 09:40:15;;;;;;;4.73;4.13;;;;;;;12.26;47.16;99538.78;10345857;28;20244;-37
2022/12/30 09:45:27;;;;;;;6.03;4.40;;;;;;;13.07;45.44;99569.31;10346967;28;20472;-38
2022/12/30 09:50:44;;;;;;;9.03;6.17;;;;;;;12.63;46.91;99531.28;10340675;28;20641;-37
2022/12/30 09:55:46;;;;;;;5.73;5.00;;;;;;;12.02;47.13;99491.88;10344399;28;20230;-38
2022/12/30 10:00:49;;;;;;;5.30;4.77;;;;;;;11.58;48.05;99503.81;10343820;28;20242;-37
2022/12/30 10:05:54;;;;;;;8.37;4.87;;;;;;;11.46;47.83;99500.88;10348207;28;20708;-38
2022/12/30 10:11:26;;;;;;;5.20;4.70;;;;;;;12.63;45.96;99482.13;10340073;28;20618;-38
2022/12/30 10:16:46;;;;;;;5.47;4.27;;;;;;;12.36;46.82;99485.56;10337773;28;20267;-38
2022/12/30 10:22:24;;;;;;;5.07;3.87;;;;;;;12.51;45.79;99469.31;10343373;28;20243;-38
2022/12/30 10:27:37;;;;;;;9.73;6.67;;;;;;;13.62;43.61;99480.41;10335324;28;20485;-37
2022/12/30 10:32:46;;;;;;;11.27;6.17;;;;;;;13.40;44.91;99466.41;10341495;28;20233;-37
2022/12/30 10:37:54;;;;;;;11.83;7.00;;;;;;;13.60;45.10;99471.72;10341986;28;20619;-39
2022/12/30 10:43:19;;;;;;;7.37;4.60;;;;;;;12.24;46.08;99479.16;10338935;28;20575;-38
2022/12/30 10:48:39;;;;;;;7.23;5.20;;;;;;;13.53;45.56;99431.44;10339051;28;20716;-38
2022/12/30 10:53:44;;;;;;;9.07;5.67;;;;;;;13.15;45.96;99405.25;10343304;28;20334;-38
2022/12/30 10:58:47;;;;;;;5.40;4.67;;;;;;;15.01;42.31;99415.94;10333683;28;20245;-37
2022/12/30 11:06:26;;;;;;;6.63;5.13;;;;;;;8.87;54.74;99385.66;10570379;27;20300;-67
2022/12/30 11:14:42;;;;;;;8.77;6.13;;;;;;;8.18;56.16;99341.25;10465586;28;20225;-70
2022/12/30 11:17:15;;;;;;;7.90;6.20;;;;;;;8.88;55.69;99357.16;10441162;28;20235;-68
2022/12/30 11:22:17;;;;;;;10.70;8.30;;;;;;;7.67;57.82;99307.16;10430540;28;20759;-67
2022/12/30 11:27:47;;;;;;;9.43;7.03;;;;;;;8.06;57.12;99308.88;10419561;28;20224;-67
2022/12/30 11:32:49;;;;;;;9.67;6.47;;;;;;;8.22;57.05;99301.78;10418429;28;20224;-68
2022/12/30 11:37:51;;;;;;;8.47;6.20;;;;;;;8.53;55.52;99308.78;10419684;28;20254;-67
2022/12/30 11:43:13;;;;;;;9.33;5.37;;;;;;;8.18;56.73;99303.94;10417045;28;20231;-68
2022/12/30 11:48:31;;;;;;;6.50;5.10;;;;;;;8.85;54.29;99323.59;10415546;28;20232;-65
2022/12/30 11:53:36;;;;;;;6.73;5.57;;;;;;;8.46;55.50;99324.69;10422118;28;20231;-68
2022/12/30 11:58:40;;;;;;;5.67;5.03;;;;;;;9.99;52.00;99277.69;10416801;28;20756;-65
2022/12/30 12:03:58;;;;;;;8.50;5.90;;;;;;;9.09;54.16;99314.50;10417403;28;20613;-67
2022/12/30 12:09:14;;;;;;;9.77;6.43;;;;;;;9.93;53.39;99257.88;10417352;28;20240;-67
2022/12/30 12:14:32;;;;;;;8.43;6.07;;;;;;;11.38;49.75;99235.81;10404978;28;20229;-65
2022/12/30 12:19:52;;;;;;;8.30;6.03;;;;;;;10.50;50.01;99261.38;10392305;28;20228;-65
2022/12/30 12:25:00;;;;;;;9.10;6.47;;;;;;;11.12;49.47;99255.31;10424423;28;20883;-68
2022/12/30 12:30:02;;;;;;;10.07;5.80;;;;;;;11.09;50.15;99269.13;10404446;28;20242;-68
2022/12/30 12:35:41;;;;;;;7.23;5.30;;;;;;;9.99;51.56;99288.38;10387199;28;20240;-65
2022/12/30 12:41:04;;;;;;;6.40;4.47;;;;;;;11.19;49.66;99229.41;10378741;28;20237;-65
2022/12/30 12:46:35;;;;;;;6.53;4.13;;;;;;;10.00;52.20;99281.19;10388312;28;20236;-67
2022/12/30 12:52:06;;;;;;;6.60;4.97;;;;;;;10.04;52.31;99247.69;10380052;28;20244;-67
2022/12/30 12:57:26;;;;;;;3.87;3.57;;;;;;;10.28;51.53;99199.13;10384787;28;20241;-67
2022/12/30 13:02:56;;;;;;;7.43;4.10;;;;;;;9.26;53.60;99236.88;10387893;28;20232;-67
2022/12/30 13:08:17;;;;;;;12.73;8.20;;;;;;;11.03;50.63;99180.50;10380967;28;20767;-67
2022/12/30 13:13:23;;;;;;;6.13;4.63;;;;;;;10.33;51.12;99193.19;10386248;28;20721;-64
2022/12/30 13:18:27;;;;;;;9.67;6.20;;;;;;;11.02;50.35;99176.19;10389071;28;20694;-66
2022/12/30 13:23:40;;;;;;;11.37;7.40;;;;;;;9.76;52.73;99209.19;10393947;28;20228;-67
2022/12/30 13:28:49;;;;;;;37.80;6.33;;;;;;;9.18;55.33;99198.63;10392564;28;20237;-66
2022/12/30 13:34:06;;;;;;;9.93;8.27;;;;;;;9.38;55.07;99181.94;10444841;28;20238;-66
2022/12/30 13:39:37;;;;;;;9.33;6.50;;;;;;;8.81;55.95;99162.25;10442843;28;21131;-69
2022/12/30 13:44:43;;;;;;;8.87;6.87;;;;;;;9.61;54.79;99136.34;10396574;28;20236;-70
2022/12/30 13:49:45;;;;;;;10.77;7.90;;;;;;;10.59;52.84;99071.28;10386348;28;20251;-69
2022/12/30 13:54:55;;;;;;;8.33;6.07;;;;;;;10.05;53.05;99099.66;10397221;28;20236;-69
2022/12/30 14:00:24;;;;;;;7.30;6.13;;;;;;;10.44;52.74;99101.66;10446779;28;20239;-69
2022/12/30 14:05:38;;;;;;;7.47;6.13;;;;;;;11.04;51.84;99085.78;10444476;28;20232;-68
2022/12/30 14:10:53;;;;;;;4.47;4.03;;;;;;;10.10;54.00;99132.78;10448124;28;20232;-69
2022/12/30 14:16:13;;;;;;;4.67;3.70;;;;;;;9.85;53.92;99111.03;10438310;28;20292;-70
2022/12/30 14:21:18;;;;;;;7.20;3.80;;;;;;;8.98;55.30;99104.19;10440029;28;20231;-70
2022/12/30 14:26:20;;;;;;;5.50;3.93;;;;;;;10.37;53.51;99047.34;10438801;28;20228;-69
2022/12/30 14:31:35;;;;;;;9.13;4.03;;;;;;;10.82;52.70;99055.72;10445790;28;20246;-70
2022/12/30 14:36:39;;;;;;;5.33;3.53;;;;;;;10.31;54.49;99040.13;10442599;28;20716;-68
2022/12/30 14:41:48;;;;;;;6.33;4.87;;;;;;;10.80;52.59;99049.75;10446878;28;20286;-73
2022/12/30 14:46:56;;;;;;;5.47;4.33;;;;;;;9.11;55.54;99080.28;10439149;28;20235;-70
2022/12/30 14:52:11;;;;;;;5.63;3.73;;;;;;;9.39;55.24;99085.63;10457406;28;20833;-81
2022/12/30 14:57:24;;;;;;;5.97;4.30;;;;;;;10.41;54.35;99026.34;10450875;28;20272;-66
2022/12/30 15:02:32;;;;;;;8.00;5.10;;;;;;;9.73;55.35;99061.81;10440318;28;20741;-70
2022/12/30 15:07:35;;;;;;;8.67;6.00;;;;;;;10.40;53.41;99027.41;10439245;28;20303;-69
2022/12/30 15:12:37;;;;;;;8.90;6.23;;;;;;;10.00;54.48;99080.72;10440810;28;20721;-66
2022/12/30 15:17:38;;;;;;;5.73;4.23;;;;;;;8.72;56.93;99070.81;10441926;28;20238;-69
2022/12/30 15:22:42;;;;;;;7.07;5.10;;;;;;;10.19;54.88;99031.03;10447531;28;20658;-70
2022/12/30 15:27:48;;;;;;;9.73;7.53;;;;;;;11.03;52.50;99049.31;10449563;28;20242;-72
2022/12/30 15:33:11;;;;;;;14.00;7.70;;;;;;;12.80;49.38;99112.03;10441931;28;20273;-68
2022/12/30 15:38:19;;;;;;;6.77;5.37;;;;;;;9.31;55.36;99082.28;10441096;28;20354;-70
2022/12/30 15:43:21;;;;;;;6.63;5.40;;;;;;;11.88;51.14;99053.16;10440681;28;20250;-68
2022/12/30 15:48:41;;;;;;;10.30;8.27;;;;;;;10.86;52.92;99027.50;10438816;28;20228;-67
2022/12/30 15:53:55;;;;;;;7.50;6.30;;;;;;;11.13;51.79;99032.84;10450111;28;20246;-69
2022/12/30 15:59:03;;;;;;;5.07;4.33;;;;;;;10.21;55.15;99020.94;10442065;28;20229;-67
2022/12/30 16:04:13;;;;;;;5.47;4.10;;;;;;;10.11;54.79;99024.00;10445609;28;20753;-67
2022/12/30 16:09:37;;;;;;;5.03;4.50;;;;;;;10.51;54.13;99024.97;10450168;28;20228;-70
2022/12/30 16:14:40;;;;;;;5.43;4.20;;;;;;;10.70;53.64;99009.97;10462800;28;20310;-67
2022/12/30 16:19:43;;;;;;;5.47;4.03;;;;;;;10.26;55.62;99022.00;10460152;28;20233;-67
2022/12/30 16:25:04;;;;;;;4.73;3.90;;;;;;;9.10;58.36;99057.25;10460673;28;20318;-70
2022/12/30 16:30:27;;;;;;;5.13;4.27;;;;;;;8.74;61.07;99050.16;10452614;28;20231;-70
2022/12/30 16:35:29;;;;;;;3.30;2.67;;;;;;;7.99;64.29;98955.41;10446712;28;20231;-70
2022/12/30 16:40:35;;;;;;;3.70;2.73;;;;;;;8.44;63.21;99004.91;10426759;28;20236;-70
2022/12/30 16:45:37;;;;;;;2.97;2.47;;;;;;;9.00;62.74;99011.41;10400940;28;20243;-70
2022/12/30 16:50:42;;;;;;;2.97;2.77;;;;;;;10.68;58.81;98941.59;10401044;28;20721;-69
2022/12/30 16:55:44;;;;;;;2.80;2.53;;;;;;;10.14;60.77;98940.72;10398345;28;20280;-69
2022/12/30 17:00:52;;;;;;;2.10;2.00;;;;;;;9.24;62.66;98990.63;10381071;28;20984;-69
2022/12/30 17:05:55;;;;;;;3.57;2.97;;;;;;;10.37;60.94;98950.25;10396176;28;20245;-69
2022/12/30 17:11:09;;;;;;;1.93;1.83;;;;;;;10.74;59.66;98966.75;10387165;28;20315;-68
2022/12/30 17:16:25;;;;;;;2.43;2.20;;;;;;;10.27;61.65;98970.16;10414706;28;20243;-68
2022/12/30 17:21:41;;;;;;;2.60;2.40;;;;;;;10.74;60.04;98975.59;10447524;28;20316;-69
2022/12/30 17:26:44;;;;;;;1.97;1.87;;;;;;;9.15;62.99;98973.94;10419971;28;20298;-69
2022/12/30 17:31:46;;;;;;;3.20;2.60;;;;;;;10.79;60.16;99010.63;10441508;28;20890;-68
2022/12/30 17:36:48;;;;;;;2.10;2.00;;;;;;;11.45;60.05;99025.81;10418485;28;20254;-69
2022/12/30 17:41:50;;;;;;;2.60;2.40;;;;;;;10.89;59.78;99012.88;10444271;28;20257;-69
2022/12/30 17:46:52;;;;;;;2.53;2.23;;;;;;;11.42;59.53;99031.63;10425618;28;20239;-68
2022/12/30 17:51:59;;;;;;;2.40;2.20;;;;;;;11.33;59.17;99043.56;10433025;28;21343;-68
2022/12/30 17:57:02;;;;;;;2.53;2.30;;;;;;;11.57;58.71;99068.06;10419519;28;20250;-69
2022/12/30 18:02:03;;;;;;;2.07;1.87;;;;;;;11.74;58.00;99065.78;10437018;28;20246;-69
2022/12/30 18:07:05;;;;;;;2.27;2.17;;;;;;;12.08;57.95;99102.22;10430133;28;20572;-69
2022/12/30 18:12:12;;;;;;;1.83;1.73;;;;;;;11.24;60.32;99076.97;10447438;28;20241;-68
2022/12/30 18:17:13;;;;;;;2.50;2.30;;;;;;;11.69;58.54;99092.41;10437243;28;20246;-68
2022/12/30 18:22:15;;;;;;;3.37;2.20;;;;;;;12.42;57.76;99142.31;10434907;28;20775;-68
2022/12/30 18:27:17;;;;;;;2.43;2.30;;;;;;;12.72;57.34;99164.09;10425626;28;20668;-67
2022/12/30 18:32:19;;;;;;;2.20;2.00;;;;;;;13.26;55.42;99186.13;10433071;28;20239;-67
2022/12/30 18:37:21;;;;;;;2.97;2.40;;;;;;;11.77;58.63;99108.25;10430290;28;20239;-69
2022/12/30 18:42:22;;;;;;;3.50;2.10;;;;;;;11.93;58.11;99134.63;10433285;28;20257;-67
2022/12/30 18:47:24;;;;;;;2.40;2.20;;;;;;;12.64;58.48;99159.81;10432827;28;20717;-71
2022/12/30 18:52:26;;;;;;;6.63;2.83;;;;;;;12.85;57.53;99173.97;10431702;28;20239;-71
2022/12/30 18:57:28;;;;;;;2.77;2.57;;;;;;;11.17;60.77;99137.69;10427919;28;20922;-68
2022/12/30 19:02:30;;;;;;;2.37;2.17;;;;;;;13.09;57.10;99180.44;10422220;28;20849;-68
2022/12/30 19:07:32;;;;;;;2.43;2.10;;;;;;;12.60;57.47;99176.56;10426435;28;20381;-69
2022/12/30 19:12:53;;;;;;;2.50;2.30;;;;;;;13.24;56.43;99198.97;10451582;23;20231;-36
2022/12/30 19:17:55;;;;;;;3.10;2.00;;;;;;;11.77;58.64;99154.66;10419921;28;20317;-35
2022/12/30 19:22:57;;;;;;;2.70;2.20;;;;;;;12.43;57.98;99176.19;10433787;28;20231;-36
2022/12/30 19:27:58;;;;;;;2.33;1.83;;;;;;;12.08;58.75;99174.63;10401204;22;20233;-38
2022/12/30 19:33:00;;;;;;;2.40;2.20;;;;;;;12.35;59.26;99167.34;10363411;28;20984;-38
2022/12/30 19:38:02;;;;;;;3.00;2.37;;;;;;;13.03;56.81;99200.94;10356300;28;20233;-37
2022/12/30 19:43:05;;;;;;;2.00;1.80;;;;;;;12.54;58.00;99184.44;10356003;28;20229;-36
2022/12/30 19:48:09;;;;;;;1.90;1.80;;;;;;;12.62;57.49;99175.31;10360256;28;20240;-36
2022/12/30 19:53:10;;;;;;;2.50;2.03;;;;;;;13.09;57.62;99180.44;10358041;28;20797;-38
2022/12/30 19:58:12;;;;;;;2.60;2.40;;;;;;;13.73;56.47;99218.91;10352750;28;20233;-38
2022/12/30 20:03:14;;;;;;;1.80;1.70;;;;;;;12.86;59.11;99181.81;10394300;28;20247;-36
2022/12/30 20:08:16;;;;;;;1.83;1.73;;;;;;;12.36;59.80;99200.34;10399826;28;20232;-35
2022/12/30 20:13:18;;;;;;;2.60;2.27;;;;;;;12.88;59.08;99203.09;10398430;28;20252;-38
2022/12/30 20:18:19;;;;;;;2.73;2.33;;;;;;;13.03;56.72;99210.88;10401759;28;20243;-38
2022/12/30 20:23:21;;;;;;;3.90;2.03;;;;;;;12.07;59.46;99172.97;10394657;28;20703;-38
2022/12/30 20:28:23;;;;;;;2.33;2.13;;;;;;;13.26;57.87;99219.22;10394989;28;20239;-38
2022/12/30 20:33:25;;;;;;;2.73;2.53;;;;;;;13.13;55.80;99200.47;10394605;28;20241;-38
2022/12/30 20:38:27;;;;;;;2.33;2.13;;;;;;;14.37;55.24;99262.66;10386622;28;20244;-38
2022/12/30 20:43:30;;;;;;;2.20;2.10;;;;;;;14.13;55.34;99260.81;10395490;28;20620;-38
2022/12/30 20:48:32;;;;;;;3.20;2.33;;;;;;;13.99;56.44;99271.66;10398515;28;20241;-38
2022/12/30 20:53:34;;;;;;;2.23;2.07;;;;;;;13.86;55.22;99244.88;10400045;28;20249;-37
2022/12/30 20:58:36;;;;;;;1.73;1.63;;;;;;;12.41;58.49;99215.81;10390143;28;20240;-38
2022/12/30 21:03:39;;;;;;;1.63;1.53;;;;;;;13.47;56.40;99219.94;10401693;28;20323;-37
2022/12/30 21:08:41;;;;;;;2.00;1.90;;;;;;;14.68;54.41;99274.34;10397388;28;20775;-38
2022/12/30 21:13:49;;;;;;;3.20;1.60;;;;;;;13.83;55.40;99243.47;10392696;28;20230;-37
2022/12/30 21:18:53;;;;;;;1.80;1.70;;;;;;;13.45;56.32;99208.59;10395472;28;20617;-38
2022/12/30 21:23:55;;;;;;;2.17;1.97;;;;;;;13.38;56.40;99207.78;10374968;28;20224;-37
2022/12/30 21:28:58;;;;;;;2.17;1.90;;;;;;;13.80;55.83;99194.63;10395767;28;20248;-37
2022/12/30 21:34:01;;;;;;;3.43;1.80;;;;;;;14.75;54.17;99237.38;10395699;28;20607;-38
2022/12/30 22:06:05;;;;;;;1.70;1.60;;;;;;;13.97;55.97;99241.47;10397336;28;20768;-38
2022/12/30 22:11:07;;;;;;;1.90;1.30;;;;;;;14.02;55.49;99236.25;10393617;28;20232;-37
2022/12/30 22:16:08;;;;;;;1.97;1.87;;;;;;;14.91;53.81;99265.63;10380065;28;20446;-38
2022/12/30 22:21:10;;;;;;;1.77;1.67;;;;;;;13.64;56.36;99233.66;10388770;28;20240;-38
2022/12/30 22:26:12;;;;;;;2.17;1.73;;;;;;;12.85;58.29;99212.38;10384949;28;20228;-38
2022/12/30 22:31:13;;;;;;;1.80;1.70;;;;;;;14.29;56.30;99233.34;10389566;28;20243;-38
2022/12/30 22:36:15;;;;;;;1.27;1.27;;;;;;;12.90;58.48;99209.88;10381553;28;20702;-38
2022/12/30 22:41:17;;;;;;;2.53;2.33;;;;;;;14.89;54.88;99267.72;10377485;28;20229;-38
2022/12/30 22:46:19;;;;;;;2.03;1.93;;;;;;;13.29;58.36;99239.47;10382464;28;20236;-38
2022/12/30 22:51:21;;;;;;;1.60;1.50;;;;;;;14.53;56.26;99244.28;10390975;28;20346;-38
2022/12/30 22:56:23;;;;;;;1.90;1.80;;;;;;;13.85;56.36;99217.16;10398226;28;20262;-38
2022/12/30 23:01:24;;;;;;;2.10;1.63;;;;;;;14.83;54.81;99249.78;10401307;28;20237;-38
2022/12/30 23:06:27;;;;;;;1.70;1.60;;;;;;;15.16;55.20;99258.47;10391315;28;20240;-38
2022/12/30 23:11:31;;;;;;;1.50;1.40;;;;;;;14.83;56.03;99240.84;10393309;28;20294;-38
2022/12/30 23:16:34;;;;;;;1.67;1.57;;;;;;;14.54;57.26;99230.59;10390287;28;20336;-38
2022/12/30 23:21:36;;;;;;;1.87;1.57;;;;;;;12.92;58.93;99197.09;10396341;28;20232;-38
2022/12/30 23:26:40;;;;;;;1.73;1.63;;;;;;;14.85;56.41;99236.91;10392560;28;20236;-38
2022/12/30 23:31:43;;;;;;;2.20;1.90;;;;;;;14.22;57.38;99221.81;10394113;28;20244;-37
2022/12/30 23:36:45;;;;;;;1.83;1.70;;;;;;;13.69;57.56;99222.25;10394646;28;20275;-38
2022/12/30 23:41:47;;;;;;;1.90;1.80;;;;;;;14.73;55.77;99260.22;10386221;28;20236;-38
2022/12/30 23:46:49;;;;;;;1.43;1.33;;;;;;;13.59;57.31;99242.38;10397923;28;20269;-38
2022/12/30 23:51:50;;;;;;;2.00;1.90;;;;;;;15.46;53.67;99315.09;10392546;28;20319;-38
2022/12/30 23:56:52;;;;;;;1.73;1.50;;;;;;;14.29;55.90;99272.88;10393617;28;20232;-38
